Time;durP1;ratioP1;P1;durP2;ratioP2;P2;SDS_P1;SDS_P2;PMS_P1;PMS_P2;Temp;Humidity;BMP_temperature;BMP_pressure;BME280_temperature;BME280_humidity;BME280_pressure;Samples;Min_cycle;Max_cycle;Signal;HPM_P1;HPM_P2
2024/01/03 00:00:27;;;;;;;0.00;0.00;;;;;;;;;;6252286;22;20396;-88
2024/01/03 00:02:53;;;;;;;0.00;0.00;;;;;;;;;;6278993;22;20099;-89
2024/01/03 00:05:23;;;;;;;0.00;0.00;;;;;;;;;;6275882;22;20003;-87
2024/01/03 00:07:49;;;;;;;0.00;0.00;;;;;;;;;;6226931;22;20017;-88
2024/01/03 00:10:48;;;;;;;0.00;0.00;;;;;;;;;;6277377;22;20008;-88
2024/01/03 00:13:35;;;;;;;0.00;0.00;;;;;;;;;;6267454;22;20619;-87
2024/01/03 00:16:01;;;;;;;0.00;0.00;;;;;;;;;;6304872;22;20003;-89
2024/01/03 00:18:49;;;;;;;0.00;0.00;;;;;;;;;;6305125;22;20011;-90
2024/01/03 00:21:18;;;;;;;0.00;0.00;;;;;;;;;;6254465;22;20078;-89
2024/01/03 00:23:50;;;;;;;0.00;0.00;;;;;;;;;;6252495;22;20003;-89
2024/01/03 00:26:15;;;;;;;0.00;0.00;;;;;;;;;;6277773;22;20102;-89
2024/01/03 00:28:41;;;;;;;0.00;0.00;;;;;;;;;;6252244;22;20015;-89
2024/01/03 00:31:09;;;;;;;0.00;0.00;;;;;;;;;;6252219;22;20060;-90
2024/01/03 00:33:38;;;;;;;0.00;0.00;;;;;;;;;;6253050;22;20002;-88
2024/01/03 00:36:04;;;;;;;0.00;0.00;;;;;;;;;;6277876;22;20005;-89
2024/01/03 00:38:29;;;;;;;0.00;0.00;;;;;;;;;;6254687;22;19999;-88
2024/01/03 00:40:57;;;;;;;0.00;0.00;;;;;;;;;;6224465;22;20023;-87
2024/01/03 00:43:22;;;;;;;0.00;0.00;;;;;;;;;;6224556;22;20004;-89
2024/01/03 00:45:48;;;;;;;0.00;0.00;;;;;;;;;;6274596;22;20039;-89
2024/01/03 00:48:15;;;;;;;0.00;0.00;;;;;;;;;;6274328;22;20004;-89
2024/01/03 00:50:40;;;;;;;0.00;0.00;;;;;;;;;;6276025;22;20007;-90
2024/01/03 00:53:05;;;;;;;0.00;0.00;;;;;;;;;;6276162;22;20006;-89
2024/01/03 00:55:31;;;;;;;0.00;0.00;;;;;;;;;;6248600;22;20053;-89
2024/01/03 00:57:56;;;;;;;0.00;0.00;;;;;;;;;;6274442;22;20007;-88
2024/01/03 01:00:22;;;;;;;0.00;0.00;;;;;;;;;;6275827;22;19995;-89
2024/01/03 01:02:48;;;;;;;0.00;0.00;;;;;;;;;;6248988;22;20386;-89
2024/01/03 01:05:14;;;;;;;0.00;0.00;;;;;;;;;;6275803;22;20094;-88
2024/01/03 01:07:40;;;;;;;0.00;0.00;;;;;;;;;;6273911;22;20388;-88
2024/01/03 01:10:07;;;;;;;0.00;0.00;;;;;;;;;;6275190;22;20010;-89
2024/01/03 01:12:32;;;;;;;0.00;0.00;;;;;;;;;;6275383;22;20000;-89
2024/01/03 01:15:01;;;;;;;0.00;0.00;;;;;;;;;;6275764;22;20072;-89
2024/01/03 01:17:27;;;;;;;0.00;0.00;;;;;;;;;;6249209;22;20003;-88
2024/01/03 01:19:52;;;;;;;0.00;0.00;;;;;;;;;;6274539;22;20378;-89
2024/01/03 01:22:18;;;;;;;0.00;0.00;;;;;;;;;;6274066;22;20438;-89
2024/01/03 01:24:43;;;;;;;0.00;0.00;;;;;;;;;;6273617;22;20000;-87
2024/01/03 01:27:09;;;;;;;0.00;0.00;;;;;;;;;;6273937;22;20014;-87
2024/01/03 01:29:34;;;;;;;0.00;0.00;;;;;;;;;;6273794;22;20052;-88
2024/01/03 01:32:00;;;;;;;0.00;0.00;;;;;;;;;;6275576;22;20056;-89
2024/01/03 01:34:26;;;;;;;0.00;0.00;;;;;;;;;;6274140;22;20023;-89
2024/01/03 01:36:51;;;;;;;0.00;0.00;;;;;;;;;;6275237;22;20010;-88
2024/01/03 01:39:17;;;;;;;0.00;0.00;;;;;;;;;;6275208;22;20006;-90
2024/01/03 01:41:42;;;;;;;0.00;0.00;;;;;;;;;;6273608;22;20012;-89
2024/01/03 01:44:08;;;;;;;0.00;0.00;;;;;;;;;;6275452;22;19999;-89
2024/01/03 01:46:34;;;;;;;0.00;0.00;;;;;;;;;;6274215;22;20003;-89
2024/01/03 01:49:00;;;;;;;0.00;0.00;;;;;;;;;;6274015;22;20007;-88
2024/01/03 01:51:25;;;;;;;0.00;0.00;;;;;;;;;;6275315;22;20007;-89
2024/01/03 01:53:51;;;;;;;0.00;0.00;;;;;;;;;;6248172;22;20000;-89
2024/01/03 01:56:16;;;;;;;0.00;0.00;;;;;;;;;;6248606;22;20000;-89
2024/01/03 01:58:42;;;;;;;0.00;0.00;;;;;;;;;;6248630;22;20006;-88
2024/01/03 02:01:09;;;;;;;0.00;0.00;;;;;;;;;;6275505;22;20453;-89
2024/01/03 02:03:35;;;;;;;0.00;0.00;;;;;;;;;;6275322;22;20003;-88
2024/01/03 02:06:00;;;;;;;0.00;0.00;;;;;;;;;;6275208;22;20103;-88
2024/01/03 02:08:26;;;;;;;0.00;0.00;;;;;;;;;;6270961;22;20419;-89
2024/01/03 02:10:51;;;;;;;0.00;0.00;;;;;;;;;;6248103;22;20007;-89
2024/01/03 02:13:17;;;;;;;0.00;0.00;;;;;;;;;;6274964;22;19996;-89
2024/01/03 02:15:43;;;;;;;0.00;0.00;;;;;;;;;;6273342;22;20012;-89
2024/01/03 02:18:08;;;;;;;0.00;0.00;;;;;;;;;;6275546;22;20003;-87
2024/01/03 02:20:34;;;;;;;0.00;0.00;;;;;;;;;;6273424;22;20388;-87
2024/01/03 02:23:00;;;;;;;0.00;0.00;;;;;;;;;;6247600;22;20000;-88
2024/01/03 02:25:25;;;;;;;0.00;0.00;;;;;;;;;;6273625;22;20113;-89
2024/01/03 02:27:51;;;;;;;0.00;0.00;;;;;;;;;;6275457;22;20004;-88
2024/01/03 02:30:16;;;;;;;0.00;0.00;;;;;;;;;;6273236;22;20035;-89
2024/01/03 02:32:42;;;;;;;0.00;0.00;;;;;;;;;;6274673;22;20034;-89
2024/01/03 02:35:07;;;;;;;0.00;0.00;;;;;;;;;;6274943;22;20011;-89
2024/01/03 02:37:33;;;;;;;0.00;0.00;;;;;;;;;;6274876;22;20104;-88
2024/01/03 02:39:58;;;;;;;0.00;0.00;;;;;;;;;;6251295;22;20046;-87
2024/01/03 02:42:24;;;;;;;0.00;0.00;;;;;;;;;;6306448;22;20051;-88
2024/01/03 02:44:49;;;;;;;0.00;0.00;;;;;;;;;;6279073;22;20438;-89
2024/01/03 02:47:15;;;;;;;0.00;0.00;;;;;;;;;;6305885;22;20010;-88
2024/01/03 02:49:40;;;;;;;0.00;0.00;;;;;;;;;;6306026;22;20027;-89
2024/01/03 02:52:06;;;;;;;0.00;0.00;;;;;;;;;;6306162;22;20010;-88
2024/01/03 02:54:31;;;;;;;0.00;0.00;;;;;;;;;;6305913;22;20014;-88
2024/01/03 02:56:57;;;;;;;0.00;0.00;;;;;;;;;;6306345;22;20007;-88
2024/01/03 02:59:25;;;;;;;0.00;0.00;;;;;;;;;;6279764;22;19999;-89
2024/01/03 03:01:51;;;;;;;0.00;0.00;;;;;;;;;;6278941;22;20011;-89
2024/01/03 03:04:16;;;;;;;0.00;0.00;;;;;;;;;;6306018;22;20072;-88
2024/01/03 03:06:42;;;;;;;0.00;0.00;;;;;;;;;;6305988;22;20003;-89
2024/01/03 03:09:07;;;;;;;0.00;0.00;;;;;;;;;;6278054;22;20000;-89
2024/01/03 03:11:33;;;;;;;0.00;0.00;;;;;;;;;;6303748;22;20011;-88
2024/01/03 03:13:58;;;;;;;0.00;0.00;;;;;;;;;;6305432;22;20083;-89
2024/01/03 03:16:25;;;;;;;0.00;0.00;;;;;;;;;;6305546;22;20045;-87
2024/01/03 03:18:51;;;;;;;0.00;0.00;;;;;;;;;;6305410;22;20023;-89
2024/01/03 03:21:16;;;;;;;0.00;0.00;;;;;;;;;;6305466;22;20015;-88
2024/01/03 03:23:42;;;;;;;0.00;0.00;;;;;;;;;;6305859;22;19999;-89
2024/01/03 03:26:10;;;;;;;0.00;0.00;;;;;;;;;;6305688;22;20608;-88
2024/01/03 03:28:36;;;;;;;0.00;0.00;;;;;;;;;;6278359;22;20004;-88
2024/01/03 03:31:03;;;;;;;0.00;0.00;;;;;;;;;;6304197;22;20014;-88
2024/01/03 03:33:29;;;;;;;0.00;0.00;;;;;;;;;;6278648;22;20260;-87
2024/01/03 03:35:55;;;;;;;0.00;0.00;;;;;;;;;;6305006;22;20033;-89
2024/01/03 03:38:20;;;;;;;0.00;0.00;;;;;;;;;;6305500;22;20101;-88
2024/01/03 03:40:46;;;;;;;0.00;0.00;;;;;;;;;;6247022;22;20012;-88
2024/01/03 03:43:11;;;;;;;0.00;0.00;;;;;;;;;;6272874;22;20000;-88
2024/01/03 03:45:36;;;;;;;0.00;0.00;;;;;;;;;;6274456;22;20003;-88
2024/01/03 03:48:02;;;;;;;0.00;0.00;;;;;;;;;;6272990;22;20370;-88
2024/01/03 03:50:29;;;;;;;0.00;0.00;;;;;;;;;;6272673;22;20098;-86
2024/01/03 03:52:54;;;;;;;0.00;0.00;;;;;;;;;;6273112;22;20011;-87
2024/01/03 03:55:20;;;;;;;0.00;0.00;;;;;;;;;;6275028;22;20436;-87
2024/01/03 03:57:45;;;;;;;0.00;0.00;;;;;;;;;;6289969;22;20407;-88
2024/01/03 04:00:11;;;;;;;0.00;0.00;;;;;;;;;;6289283;22;19996;-87
2024/01/03 04:02:37;;;;;;;0.00;0.00;;;;;;;;;;6287604;22;20003;-88
2024/01/03 04:05:03;;;;;;;0.00;0.00;;;;;;;;;;6280455;22;20446;-88
2024/01/03 04:07:31;;;;;;;0.00;0.00;;;;;;;;;;6274123;22;20015;-87
2024/01/03 04:09:57;;;;;;;0.00;0.00;;;;;;;;;;6274328;22;20008;-88
2024/01/03 04:12:22;;;;;;;0.00;0.00;;;;;;;;;;6272619;22;20003;-88
2024/01/03 04:14:48;;;;;;;0.00;0.00;;;;;;;;;;6274527;22;20068;-88
2024/01/03 04:17:15;;;;;;;0.00;0.00;;;;;;;;;;6276152;22;19999;-87
2024/01/03 04:19:41;;;;;;;0.00;0.00;;;;;;;;;;6275939;22;20342;-88
2024/01/03 04:22:07;;;;;;;0.00;0.00;;;;;;;;;;6274665;22;20027;-88
2024/01/03 04:24:32;;;;;;;0.00;0.00;;;;;;;;;;6249323;22;20497;-88
2024/01/03 04:26:58;;;;;;;0.00;0.00;;;;;;;;;;6274366;22;20010;-88
2024/01/03 04:29:24;;;;;;;0.00;0.00;;;;;;;;;;6274301;22;20018;-86
2024/01/03 04:31:50;;;;;;;0.00;0.00;;;;;;;;;;6276138;22;20339;-88
2024/01/03 04:34:16;;;;;;;0.00;0.00;;;;;;;;;;6274130;22;20343;-88
2024/01/03 04:36:42;;;;;;;0.00;0.00;;;;;;;;;;6276084;22;20003;-88
2024/01/03 04:39:08;;;;;;;0.00;0.00;;;;;;;;;;6274674;22;20011;-89
2024/01/03 04:41:33;;;;;;;0.00;0.00;;;;;;;;;;6298114;22;20098;-87
2024/01/03 04:44:00;;;;;;;0.00;0.00;;;;;;;;;;6278429;22;20076;-87
2024/01/03 04:46:25;;;;;;;0.00;0.00;;;;;;;;;;6306731;22;20048;-88
2024/01/03 04:48:51;;;;;;;0.00;0.00;;;;;;;;;;6306607;22;20011;-88
2024/01/03 04:51:17;;;;;;;0.00;0.00;;;;;;;;;;6305675;22;20008;-88
2024/01/03 04:53:44;;;;;;;0.00;0.00;;;;;;;;;;6279865;22;20004;-89
2024/01/03 04:56:09;;;;;;;0.00;0.00;;;;;;;;;;6306929;22;20000;-88
2024/01/03 04:58:35;;;;;;;0.00;0.00;;;;;;;;;;6279873;22;20030;-89
2024/01/03 05:01:01;;;;;;;0.00;0.00;;;;;;;;;;6306781;22;20068;-89
2024/01/03 05:03:26;;;;;;;0.00;0.00;;;;;;;;;;6306843;22;20414;-89
2024/01/03 05:05:52;;;;;;;0.00;0.00;;;;;;;;;;6280042;22;19999;-89
2024/01/03 05:08:18;;;;;;;0.00;0.00;;;;;;;;;;6307155;22;20003;-87
2024/01/03 05:10:43;;;;;;;0.00;0.00;;;;;;;;;;6306551;22;20358;-88
2024/01/03 05:13:09;;;;;;;0.00;0.00;;;;;;;;;;6277098;22;20014;-89
2024/01/03 05:15:34;;;;;;;0.00;0.00;;;;;;;;;;6306187;22;20073;-88
2024/01/03 05:18:00;;;;;;;0.00;0.00;;;;;;;;;;6306477;22;19999;-89
2024/01/03 05:20:25;;;;;;;0.00;0.00;;;;;;;;;;6279024;22;20012;-90
2024/01/03 05:22:51;;;;;;;0.00;0.00;;;;;;;;;;6306397;22;20003;-90
2024/01/03 05:25:16;;;;;;;0.00;0.00;;;;;;;;;;6306354;22;20005;-89
2024/01/03 05:27:42;;;;;;;0.00;0.00;;;;;;;;;;6306411;22;20071;-90
2024/01/03 05:30:08;;;;;;;0.00;0.00;;;;;;;;;;6279045;22;20007;-91
2024/01/03 05:32:35;;;;;;;0.00;0.00;;;;;;;;;;6306940;22;20080;-90
2024/01/03 05:35:00;;;;;;;0.00;0.00;;;;;;;;;;6280019;22;20018;-91
2024/01/03 05:37:26;;;;;;;0.00;0.00;;;;;;;;;;6253585;22;20003;-91
2024/01/03 05:39:51;;;;;;;0.00;0.00;;;;;;;;;;6252766;22;20010;-88
2024/01/03 05:42:24;;;;;;;0.00;0.00;;;;;;;;;;6306477;22;20057;-93
2024/01/03 05:44:53;;;;;;;0.00;0.00;;;;;;;;;;6263881;22;20010;-88
2024/01/03 05:47:19;;;;;;;0.00;0.00;;;;;;;;;;6260748;22;20006;-83
2024/01/03 05:49:46;;;;;;;0.00;0.00;;;;;;;;;;6308807;22;20003;-87
2024/01/03 05:52:12;;;;;;;0.00;0.00;;;;;;;;;;6283040;22;20009;-87
2024/01/03 05:54:47;;;;;;;0.00;0.00;;;;;;;;;;6259588;22;20031;-85
2024/01/03 05:57:13;;;;;;;0.00;0.00;;;;;;;;;;6283036;22;20005;-88
2024/01/03 05:59:40;;;;;;;0.00;0.00;;;;;;;;;;6262192;22;20038;-88
2024/01/03 06:02:05;;;;;;;0.00;0.00;;;;;;;;;;6258679;22;20010;-83
2024/01/03 06:04:31;;;;;;;0.00;0.00;;;;;;;;;;6272998;22;20004;-82
2024/01/03 06:06:56;;;;;;;0.00;0.00;;;;;;;;;;6308448;22;20011;-84
2024/01/03 06:09:22;;;;;;;0.00;0.00;;;;;;;;;;6281918;22;20052;-93
2024/01/03 06:11:56;;;;;;;0.00;0.00;;;;;;;;;;6271187;22;20003;-95
2024/01/03 06:14:56;;;;;;;0.00;0.00;;;;;;;;;;6288639;22;20007;-91
2024/01/03 06:17:21;;;;;;;0.00;0.00;;;;;;;;;;6300051;22;20034;-85
2024/01/03 06:19:47;;;;;;;0.00;0.00;;;;;;;;;;6212722;22;20060;-91
2024/01/03 06:22:13;;;;;;;0.00;0.00;;;;;;;;;;6162753;23;20099;-82
2024/01/03 06:24:38;;;;;;;0.00;0.00;;;;;;;;;;6211088;23;20001;-86
2024/01/03 06:27:04;;;;;;;0.00;0.00;;;;;;;;;;6186812;23;20019;-87
2024/01/03 06:29:29;;;;;;;0.00;0.00;;;;;;;;;;6186051;23;20001;-86
2024/01/03 06:31:55;;;;;;;0.00;0.00;;;;;;;;;;6209891;23;20005;-84
2024/01/03 06:34:23;;;;;;;0.00;0.00;;;;;;;;;;6212004;23;20428;-83
2024/01/03 06:36:49;;;;;;;0.00;0.00;;;;;;;;;;6185187;23;20018;-83
2024/01/03 06:39:15;;;;;;;0.00;0.00;;;;;;;;;;6186802;23;20063;-84
2024/01/03 06:41:40;;;;;;;0.00;0.00;;;;;;;;;;6215362;23;20036;-82
2024/01/03 06:44:11;;;;;;;0.00;0.00;;;;;;;;;;6215279;23;20435;-82
2024/01/03 06:46:40;;;;;;;0.00;0.00;;;;;;;;;;6222813;23;20043;-89
2024/01/03 06:49:21;;;;;;;0.00;0.00;;;;;;;;;;6179523;23;20424;-86
2024/01/03 06:51:47;;;;;;;0.00;0.00;;;;;;;;;;6197045;23;20028;-95
2024/01/03 06:54:16;;;;;;;0.00;0.00;;;;;;;;;;6168740;23;20269;-91
2024/01/03 06:56:45;;;;;;;0.00;0.00;;;;;;;;;;6165439;23;20001;-85
2024/01/03 06:59:10;;;;;;;0.00;0.00;;;;;;;;;;6216471;23;20011;-84
2024/01/03 07:01:48;;;;;;;0.00;0.00;;;;;;;;;;6207065;23;20000;-87
2024/01/03 07:04:13;;;;;;;0.00;0.00;;;;;;;;;;6213594;23;20087;-81
2024/01/03 07:06:52;;;;;;;0.28;0.00;;;;;;;;;;6186065;23;20001;-86
2024/01/03 07:09:18;;;;;;;0.00;0.00;;;;;;;;;;6189089;23;20011;-89
2024/01/03 07:11:43;;;;;;;0.00;0.00;;;;;;;;;;6198997;23;20012;-90
2024/01/03 07:14:13;;;;;;;0.00;0.00;;;;;;;;;;6189627;23;20004;-85
2024/01/03 07:16:39;;;;;;;0.00;0.00;;;;;;;;;;6186664;23;20020;-84
2024/01/03 07:19:07;;;;;;;0.00;0.00;;;;;;;;;;6186983;23;20407;-85
2024/01/03 07:21:39;;;;;;;0.00;0.00;;;;;;;;;;6164079;23;20039;-90
2024/01/03 07:24:05;;;;;;;0.00;0.00;;;;;;;;;;6161273;23;20016;-80
2024/01/03 07:31:35;;;;;;;;;;;;;;;;;;;;;
2024/01/03 07:34:07;;;;;;;0.00;0.00;;;;;;;;;;6129360;23;20034;-82
2024/01/03 07:36:33;;;;;;;0.00;0.00;;;;;;;;;;6159813;23;20015;-82
2024/01/03 07:39:00;;;;;;;0.00;0.00;;;;;;;;;;6167209;23;20004;-82
2024/01/03 07:41:35;;;;;;;0.00;0.00;;;;;;;;;;6216008;23;20011;-87
2024/01/03 07:44:04;;;;;;;0.00;0.00;;;;;;;;;;6196020;23;19996;-82
2024/01/03 07:46:30;;;;;;;0.00;0.00;;;;;;;;;;6194167;23;20434;-83
2024/01/03 07:48:56;;;;;;;0.00;0.00;;;;;;;;;;6219168;23;19996;-82
2024/01/03 07:54:50;;;;;;;0.00;0.00;;;;;;;;;;6181154;22;20281;-88
2024/01/03 07:57:15;;;;;;;0.00;0.00;;;;;;;;;;6165950;23;20088;-87
2024/01/03 07:59:44;;;;;;;0.00;0.00;;;;;;;;;;6160579;23;20013;-88
2024/01/03 08:02:14;;;;;;;0.00;0.00;;;;;;;;;;6160938;23;20344;-87
2024/01/03 08:04:42;;;;;;;0.00;0.00;;;;;;;;;;6186128;23;20076;-90
2024/01/03 08:07:11;;;;;;;0.00;0.00;;;;;;;;;;6158789;23;20009;-83
2024/01/03 08:09:37;;;;;;;0.00;0.00;;;;;;;;;;6190224;22;20028;-88
2024/01/03 08:12:05;;;;;;;0.00;0.00;;;;;;;;;;6252267;22;20007;-88
2024/01/03 08:14:41;;;;;;;0.00;0.00;;;;;;;;;;6252682;22;20027;-92
2024/01/03 08:17:07;;;;;;;0.00;0.00;;;;;;;;;;6248773;22;20008;-87
2024/01/03 08:19:40;;;;;;;0.00;0.00;;;;;;;;;;6247788;22;20000;-86
2024/01/03 08:22:08;;;;;;;0.00;0.00;;;;;;;;;;6253997;22;20015;-87
2024/01/03 08:24:35;;;;;;;0.00;0.00;;;;;;;;;;6255047;22;20011;-91
2024/01/03 08:27:00;;;;;;;0.00;0.00;;;;;;;;;;6280767;22;19999;-87
2024/01/03 08:29:26;;;;;;;0.00;0.00;;;;;;;;;;6276014;22;20003;-84
2024/01/03 08:31:51;;;;;;;0.00;0.00;;;;;;;;;;6262718;22;20373;-85
2024/01/03 08:34:17;;;;;;;0.00;0.00;;;;;;;;;;6288230;22;20059;-84
2024/01/03 08:36:44;;;;;;;0.00;0.00;;;;;;;;;;6225831;22;20004;-85
2024/01/03 08:39:09;;;;;;;0.13;0.00;;;;;;;;;;6275287;22;20027;-85
2024/01/03 08:41:35;;;;;;;0.00;0.00;;;;;;;;;;6252811;22;20011;-86
2024/01/03 08:44:10;;;;;;;0.00;0.00;;;;;;;;;;6258191;22;20016;-85
2024/01/03 08:46:42;;;;;;;0.00;0.00;;;;;;;;;;6227434;22;20058;-81
2024/01/03 08:49:08;;;;;;;0.00;0.00;;;;;;;;;;6243690;22;20429;-84
2024/01/03 08:51:34;;;;;;;0.00;0.00;;;;;;;;;;6218535;22;20088;-86
2024/01/03 08:53:59;;;;;;;0.00;0.00;;;;;;;;;;6271414;22;20008;-86
2024/01/03 08:56:31;;;;;;;0.00;0.00;;;;;;;;;;6246671;22;20004;-90
2024/01/03 08:58:59;;;;;;;0.00;0.00;;;;;;;;;;6251675;22;20003;-85
2024/01/03 09:01:32;;;;;;;0.00;0.00;;;;;;;;;;6248714;22;20095;-84
2024/01/03 09:03:58;;;;;;;0.00;0.00;;;;;;;;;;6243365;22;20107;-88
2024/01/03 09:09:26;;;;;;;0.00;0.00;;;;;;;;;;6252150;22;20427;-83
2024/01/03 09:11:55;;;;;;;0.00;0.00;;;;;;;;;;6256424;22;20007;-82
2024/01/03 09:14:27;;;;;;;0.00;0.00;;;;;;;;;;6222650;22;20376;-87
2024/01/03 09:16:58;;;;;;;0.00;0.00;;;;;;;;;;6279970;22;20011;-87
2024/01/03 09:19:27;;;;;;;0.00;0.00;;;;;;;;;;6228341;22;20142;-89
2024/01/03 09:21:59;;;;;;;0.00;0.00;;;;;;;;;;6252812;22;20003;-87
2024/01/03 09:27:17;;;;;;;0.00;0.00;;;;;;;;;;6185429;22;20351;-84
2024/01/03 09:29:43;;;;;;;0.00;0.00;;;;;;;;;;6241266;22;20012;-85
2024/01/03 09:32:09;;;;;;;0.00;0.00;;;;;;;;;;6223332;22;20011;-85
2024/01/03 09:34:41;;;;;;;0.00;0.00;;;;;;;;;;6283663;22;20087;-86
2024/01/03 09:37:10;;;;;;;0.00;0.00;;;;;;;;;;6233932;22;20431;-89
2024/01/03 09:39:36;;;;;;;0.00;0.00;;;;;;;;;;6239581;22;20000;-83
2024/01/03 09:42:05;;;;;;;0.00;0.00;;;;;;;;;;6247983;22;20015;-89
2024/01/03 09:44:39;;;;;;;0.00;0.00;;;;;;;;;;6254328;22;20003;-85
2024/01/03 09:47:07;;;;;;;0.00;0.00;;;;;;;;;;6230304;22;20014;-89
2024/01/03 09:49:37;;;;;;;0.00;0.00;;;;;;;;;;6238904;22;20043;-88
2024/01/03 09:52:07;;;;;;;0.00;0.00;;;;;;;;;;6237897;22;20007;-89
2024/01/03 09:54:39;;;;;;;0.10;0.00;;;;;;;;;;6257995;22;20025;-91
2024/01/03 09:57:06;;;;;;;0.00;0.00;;;;;;;;;;6196870;22;20231;-84
2024/01/03 10:02:25;;;;;;;0.00;0.00;;;;;;;;;;6288505;22;20025;-89
2024/01/03 10:04:50;;;;;;;0.03;0.00;;;;;;;;;;6252909;22;20671;-85
2024/01/03 10:08:07;;;;;;;0.00;0.00;;;;;;;;;;6265080;22;20119;-88
2024/01/03 10:13:32;;;;;;;0.00;0.00;;;;;;;;;;6205855;23;20057;-88
2024/01/03 10:16:02;;;;;;;0.00;0.00;;;;;;;;;;6239639;23;20423;-86
2024/01/03 10:18:28;;;;;;;0.00;0.00;;;;;;;;;;6244966;22;20391;-85
2024/01/03 10:21:04;;;;;;;0.00;0.00;;;;;;;;;;6249646;22;20035;-93
2024/01/03 10:23:30;;;;;;;0.00;0.00;;;;;;;;;;6208149;23;20008;-87
2024/01/03 10:25:59;;;;;;;0.00;0.00;;;;;;;;;;6200897;23;20515;-86
2024/01/03 10:28:25;;;;;;;0.00;0.00;;;;;;;;;;6210183;23;20008;-91
2024/01/03 10:30:57;;;;;;;0.00;0.00;;;;;;;;;;6249264;23;20103;-88
2024/01/03 10:33:25;;;;;;;0.00;0.00;;;;;;;;;;6251622;22;20011;-85
2024/01/03 10:35:52;;;;;;;0.00;0.00;;;;;;;;;;6235956;23;20012;-92
2024/01/03 10:38:22;;;;;;;0.00;0.00;;;;;;;;;;6230775;23;20058;-90
2024/01/03 10:40:51;;;;;;;0.00;0.00;;;;;;;;;;6226766;23;20012;-84
2024/01/03 10:43:19;;;;;;;0.00;0.00;;;;;;;;;;6226272;23;20000;-93
2024/01/03 10:45:45;;;;;;;0.00;0.00;;;;;;;;;;6248491;23;20000;-93
2024/01/03 10:48:10;;;;;;;0.00;0.00;;;;;;;;;;6251281;23;20088;-93
2024/01/03 10:50:36;;;;;;;0.00;0.00;;;;;;;;;;6252408;22;20019;-91
2024/01/03 10:53:02;;;;;;;0.00;0.00;;;;;;;;;;6209831;23;20008;-90
2024/01/03 10:55:36;;;;;;;0.00;0.00;;;;;;;;;;6258188;22;20023;-89
2024/01/03 10:58:06;;;;;;;0.00;0.00;;;;;;;;;;6238069;23;20000;-94
2024/01/03 11:00:50;;;;;;;0.00;0.00;;;;;;;;;;6209040;23;19992;-91
2024/01/03 11:03:22;;;;;;;0.00;0.00;;;;;;;;;;6258266;22;20070;-92
2024/01/03 11:06:12;;;;;;;0.00;0.00;;;;;;;;;;6263386;22;20064;-85
2024/01/03 11:08:54;;;;;;;0.00;0.00;;;;;;;;;;6267354;22;20450;-86
2024/01/03 11:11:30;;;;;;;0.00;0.00;;;;;;;;;;6249605;22;20015;-86
2024/01/03 11:13:57;;;;;;;0.00;0.00;;;;;;;;;;6223298;22;20551;-88
2024/01/03 11:16:39;;;;;;;0.00;0.00;;;;;;;;;;6223392;22;20073;-94
2024/01/03 11:19:08;;;;;;;0.00;0.00;;;;;;;;;;6257130;22;20000;-89
2024/01/03 11:27:23;;;;;;;0.00;0.00;;;;;;;;;;6276193;22;20570;-90
2024/01/03 11:29:48;;;;;;;0.00;0.00;;;;;;;;;;6246047;22;20439;-88
2024/01/03 11:35:46;;;;;;;0.00;0.00;;;;;;;;;;6193410;23;20055;-87
2024/01/03 11:38:33;;;;;;;0.00;0.00;;;;;;;;;;6260042;22;20042;-90
2024/01/03 11:40:59;;;;;;;0.00;0.00;;;;;;;;;;6257030;22;20003;-93
2024/01/03 11:43:29;;;;;;;0.00;0.00;;;;;;;;;;6225221;22;20100;-89
2024/01/03 11:46:10;;;;;;;0.00;0.00;;;;;;;;;;6270085;22;20489;-89
2024/01/03 11:48:37;;;;;;;0.00;0.00;;;;;;;;;;6190607;22;20014;-91
2024/01/03 11:51:18;;;;;;;0.00;0.00;;;;;;;;;;6217856;22;20126;-90
2024/01/03 11:53:44;;;;;;;0.00;0.00;;;;;;;;;;6217975;22;20000;-88
2024/01/03 11:56:09;;;;;;;0.00;0.00;;;;;;;;;;6267337;22;20004;-86
2024/01/03 11:58:35;;;;;;;0.00;0.00;;;;;;;;;;6240364;22;19999;-84
2024/01/03 12:01:08;;;;;;;0.00;0.00;;;;;;;;;;6244884;22;20079;-93
2024/01/03 12:03:34;;;;;;;0.00;0.00;;;;;;;;;;6251343;22;20000;-94
2024/01/03 12:05:59;;;;;;;0.00;0.00;;;;;;;;;;6251478;22;19999;-95
2024/01/03 12:08:25;;;;;;;0.00;0.00;;;;;;;;;;6227093;22;20007;-95
2024/01/03 12:10:53;;;;;;;0.00;0.00;;;;;;;;;;6207048;22;20007;-94
2024/01/03 12:13:19;;;;;;;0.00;0.00;;;;;;;;;;6251773;22;20074;-92
2024/01/03 12:15:44;;;;;;;0.00;0.00;;;;;;;;;;6229684;22;20004;-92
2024/01/03 12:18:10;;;;;;;0.00;0.00;;;;;;;;;;6233430;22;20004;-95
2024/01/03 12:20:36;;;;;;;0.00;0.00;;;;;;;;;;6206432;22;20000;-94
2024/01/03 12:23:08;;;;;;;0.00;0.00;;;;;;;;;;6206468;22;20003;-94
2024/01/03 12:25:34;;;;;;;0.00;0.00;;;;;;;;;;6235797;22;20008;-95
2024/01/03 12:28:01;;;;;;;0.00;0.00;;;;;;;;;;6286089;22;20014;-91
2024/01/03 12:30:26;;;;;;;0.00;0.00;;;;;;;;;;6227485;22;20008;-94
2024/01/03 12:33:11;;;;;;;0.00;0.00;;;;;;;;;;6282756;22;20060;-94
2024/01/03 12:35:37;;;;;;;0.00;0.00;;;;;;;;;;6238496;22;20057;-94
2024/01/03 12:38:03;;;;;;;0.00;0.00;;;;;;;;;;6229939;22;20019;-92
2024/01/03 12:40:29;;;;;;;0.00;0.00;;;;;;;;;;6229353;22;20010;-92
2024/01/03 12:42:54;;;;;;;0.00;0.00;;;;;;;;;;6231407;22;20003;-91
2024/01/03 12:45:21;;;;;;;0.00;0.00;;;;;;;;;;6225949;22;20435;-89
2024/01/03 12:47:46;;;;;;;0.00;0.00;;;;;;;;;;6226422;22;20117;-89
2024/01/03 12:50:12;;;;;;;0.00;0.00;;;;;;;;;;6226263;22;20030;-92
2024/01/03 12:52:37;;;;;;;0.00;0.00;;;;;;;;;;6249966;22;20004;-90
2024/01/03 12:55:09;;;;;;;0.00;0.00;;;;;;;;;;6275698;22;20399;-91
2024/01/03 12:57:34;;;;;;;0.00;0.00;;;;;;;;;;6224534;22;20418;-89
2024/01/03 13:00:01;;;;;;;0.00;0.00;;;;;;;;;;6249518;22;20011;-85
2024/01/03 13:02:27;;;;;;;0.00;0.00;;;;;;;;;;6249789;22;20003;-87
2024/01/03 13:04:52;;;;;;;0.00;0.00;;;;;;;;;;6198352;22;20011;-91
2024/01/03 13:07:18;;;;;;;0.00;0.00;;;;;;;;;;6201124;22;20064;-91
2024/01/03 13:09:43;;;;;;;0.00;0.00;;;;;;;;;;6226154;22;20359;-91
2024/01/03 13:12:09;;;;;;;0.00;0.00;;;;;;;;;;6278211;22;20000;-94
2024/01/03 13:14:35;;;;;;;0.00;0.00;;;;;;;;;;6253441;22;20010;-91
2024/01/03 13:17:01;;;;;;;0.00;0.00;;;;;;;;;;6253161;22;20008;-88
2024/01/03 13:19:26;;;;;;;0.00;0.00;;;;;;;;;;6225875;22;20004;-87
2024/01/03 13:21:52;;;;;;;0.00;0.00;;;;;;;;;;6224327;22;20011;-90
2024/01/03 13:24:17;;;;;;;0.00;0.00;;;;;;;;;;6278064;22;19996;-92
2024/01/03 13:26:43;;;;;;;0.00;0.00;;;;;;;;;;6254597;22;20082;-90
2024/01/03 13:29:08;;;;;;;0.00;0.00;;;;;;;;;;6225023;22;20042;-92
2024/01/03 13:31:34;;;;;;;0.00;0.00;;;;;;;;;;6227405;22;20019;-91
2024/01/03 13:34:00;;;;;;;0.00;0.00;;;;;;;;;;6294113;22;20026;-92
2024/01/03 13:36:25;;;;;;;0.00;0.00;;;;;;;;;;6243823;22;20091;-92
2024/01/03 13:38:51;;;;;;;0.00;0.00;;;;;;;;;;6271699;22;20011;-91
2024/01/03 13:41:17;;;;;;;0.00;0.00;;;;;;;;;;6298317;22;20011;-92
2024/01/03 13:43:43;;;;;;;0.00;0.00;;;;;;;;;;6244971;22;20025;-90
2024/01/03 13:46:13;;;;;;;0.00;0.00;;;;;;;;;;6302715;22;20007;-89
2024/01/03 13:48:38;;;;;;;0.00;0.00;;;;;;;;;;6252704;22;20047;-90
2024/01/03 13:51:04;;;;;;;0.00;0.00;;;;;;;;;;6277316;22;20094;-89
2024/01/03 13:53:49;;;;;;;0.00;0.00;;;;;;;;;;6251816;22;20045;-90
2024/01/03 13:56:23;;;;;;;0.00;0.00;;;;;;;;;;6249642;22;20012;-90
2024/01/03 13:58:49;;;;;;;0.00;0.00;;;;;;;;;;6252944;22;20007;-87
2024/01/03 14:01:15;;;;;;;0.00;0.00;;;;;;;;;;6303861;22;20082;-90
2024/01/03 14:03:41;;;;;;;0.00;0.00;;;;;;;;;;6252352;22;20003;-91
2024/01/03 14:06:08;;;;;;;0.00;0.00;;;;;;;;;;6252023;22;19987;-90
2024/01/03 14:08:34;;;;;;;0.00;0.00;;;;;;;;;;6252645;22;20008;-89
2024/01/03 14:11:03;;;;;;;0.00;0.00;;;;;;;;;;6250157;22;20058;-89
2024/01/03 14:13:28;;;;;;;0.00;0.00;;;;;;;;;;6207479;22;20020;-91
2024/01/03 14:15:54;;;;;;;0.00;0.00;;;;;;;;;;6248479;22;20011;-91
2024/01/03 14:18:19;;;;;;;0.00;0.00;;;;;;;;;;6221886;22;20054;-90
2024/01/03 14:20:47;;;;;;;0.00;0.00;;;;;;;;;;6223774;22;20340;-91
2024/01/03 14:23:13;;;;;;;0.00;0.00;;;;;;;;;;6198521;22;20007;-91
2024/01/03 14:25:39;;;;;;;0.00;0.00;;;;;;;;;;6197613;22;20008;-91
2024/01/03 14:28:06;;;;;;;0.00;0.00;;;;;;;;;;6223211;22;20445;-90
2024/01/03 14:30:32;;;;;;;0.00;0.00;;;;;;;;;;6224138;22;20034;-91
2024/01/03 14:32:57;;;;;;;0.00;0.00;;;;;;;;;;6242719;22;20389;-91
2024/01/03 14:35:23;;;;;;;0.00;0.00;;;;;;;;;;6243177;23;20004;-91
2024/01/03 14:37:49;;;;;;;0.00;0.00;;;;;;;;;;6217655;23;20004;-92
2024/01/03 14:40:15;;;;;;;0.00;0.00;;;;;;;;;;6242889;23;20015;-90
2024/01/03 14:42:50;;;;;;;0.00;0.00;;;;;;;;;;6243674;22;20000;-91
2024/01/03 14:45:19;;;;;;;0.00;0.00;;;;;;;;;;6217878;23;20516;-91
2024/01/03 14:47:47;;;;;;;0.00;0.00;;;;;;;;;;6217956;23;20000;-89
2024/01/03 14:50:14;;;;;;;0.00;0.00;;;;;;;;;;6215865;23;20008;-89
2024/01/03 14:52:40;;;;;;;0.00;0.00;;;;;;;;;;6217777;23;20030;-86
2024/01/03 14:55:07;;;;;;;0.00;0.00;;;;;;;;;;6241374;23;20000;-88
2024/01/03 14:57:33;;;;;;;0.00;0.00;;;;;;;;;;6240379;23;20004;-93
2024/01/03 14:59:59;;;;;;;0.00;0.00;;;;;;;;;;6245146;22;19996;-91
2024/01/03 15:02:25;;;;;;;0.00;0.00;;;;;;;;;;6218882;23;20015;-90
2024/01/03 15:04:50;;;;;;;0.00;0.00;;;;;;;;;;6243469;23;20008;-91
2024/01/03 15:07:16;;;;;;;0.00;0.00;;;;;;;;;;6243079;23;19996;-90
2024/01/03 15:09:42;;;;;;;0.00;0.00;;;;;;;;;;6243224;23;20019;-92
2024/01/03 15:12:07;;;;;;;0.00;0.00;;;;;;;;;;6244970;23;20012;-91
2024/01/03 15:14:35;;;;;;;0.00;0.00;;;;;;;;;;6218870;23;20008;-92